createdAt,value
2018-10-15T00:05:06.141Z,14.90
2018-10-15T00:15:17.516Z,15.43
2018-10-15T00:25:21.043Z,23.50
2018-10-15T00:35:24.358Z,31.90
2018-10-15T00:45:27.689Z,19.43
2018-10-15T00:55:31.032Z,17.23
2018-10-15T01:05:34.373Z,16.17
2018-10-15T01:15:37.724Z,16.80
2018-10-15T01:25:41.063Z,23.77
2018-10-15T01:35:44.406Z,20.53
2018-10-15T01:45:48.692Z,27.77
2018-10-15T01:55:52.066Z,20.83
2018-10-15T02:05:56.001Z,20.63
2018-10-15T02:15:59.320Z,17.47
2018-10-15T02:26:02.764Z,29.20
2018-10-15T02:36:06.329Z,24.03
2018-10-15T02:46:09.712Z,17.63
2018-10-15T02:56:13.030Z,19.67
2018-10-15T03:06:16.373Z,20.77
2018-10-15T03:16:19.707Z,19.53
2018-10-15T03:26:23.652Z,21.83
2018-10-15T03:36:26.995Z,19.00
2018-10-15T03:46:30.383Z,24.53
2018-10-15T03:56:33.712Z,16.30
2018-10-15T04:06:37.045Z,16.33
2018-10-15T04:16:41.108Z,20.83
2018-10-15T04:26:44.688Z,20.13
2018-10-15T04:36:48.032Z,18.87
2018-10-15T04:46:54.344Z,29.30
2018-10-15T04:56:57.796Z,20.53
2018-10-15T05:07:01.120Z,23.07
2018-10-15T05:17:04.589Z,21.20
2018-10-15T05:27:08.326Z,26.40
2018-10-15T05:37:11.760Z,35.47
2018-10-15T05:47:15.164Z,22.40
2018-10-15T05:57:18.465Z,26.47
2018-10-15T06:07:21.792Z,27.87
2018-10-15T06:17:25.414Z,33.20
2018-10-15T06:27:28.910Z,31.87
2018-10-15T06:37:32.440Z,31.57
2018-10-15T06:47:36.013Z,56.97
2018-10-15T06:57:39.820Z,31.07
2018-10-15T07:07:44.021Z,31.50
2018-10-15T07:17:47.483Z,28.43
2018-10-15T07:27:51.337Z,29.63
2018-10-15T07:37:54.635Z,36.33
2018-10-15T07:47:57.868Z,31.63
2018-10-15T07:58:01.855Z,28.70
2018-10-15T08:08:05.628Z,39.43
2018-10-15T08:18:09.295Z,32.57
2018-10-15T08:28:12.955Z,30.63
2018-10-15T08:38:16.580Z,47.77
2018-10-15T08:48:19.949Z,35.80
2018-10-15T08:58:23.249Z,37.80
2018-10-15T09:08:26.656Z,31.23
2018-10-15T09:18:29.982Z,26.80
2018-10-15T09:28:33.330Z,26.20
2018-10-15T09:38:36.927Z,25.50
2018-10-15T09:48:41.186Z,22.13
2018-10-15T09:58:44.567Z,26.67
2018-10-15T10:08:47.923Z,24.30
2018-10-15T10:18:51.240Z,25.07
2018-10-15T10:28:54.733Z,23.73
2018-10-15T10:38:59.704Z,19.80
2018-10-15T10:49:03.187Z,16.97
2018-10-15T10:59:06.450Z,14.40
2018-10-15T11:19:18.741Z,21.40
2018-10-15T11:29:22.004Z,12.97
2018-10-15T11:49:43.182Z,18.27
2018-10-15T11:59:46.513Z,13.47
2018-10-15T12:09:49.852Z,24.53
2018-10-15T12:19:53.200Z,12.67
2018-10-15T12:29:56.905Z,16.27
2018-10-15T12:40:00.138Z,21.03
2018-10-15T12:50:04.077Z,14.10
2018-10-15T13:00:07.982Z,11.27
2018-10-15T13:10:11.519Z,22.93
2018-10-15T13:20:14.781Z,10.93
2018-10-15T13:30:18.181Z,12.23
2018-10-15T13:40:21.528Z,16.13
2018-10-15T13:50:24.810Z,13.17
2018-10-15T14:00:30.525Z,9.13
2018-10-15T14:10:33.958Z,12.27
2018-10-15T14:20:37.298Z,10.53
2018-10-15T14:30:40.621Z,12.57
2018-10-15T14:40:43.877Z,14.73
2018-10-15T14:50:47.143Z,18.67
2018-10-15T15:00:50.584Z,12.37
2018-10-15T15:21:14.216Z,14.13
2018-10-15T15:31:17.506Z,17.40
2018-10-15T15:41:20.822Z,11.37
2018-10-15T15:51:24.041Z,16.93
2018-10-15T16:01:28.099Z,14.83
2018-10-15T16:11:31.420Z,18.40
2018-10-15T16:21:34.960Z,18.30
2018-10-15T16:31:38.572Z,19.80
2018-10-15T16:41:42.754Z,22.30
2018-10-15T16:51:46.215Z,21.03
2018-10-15T17:01:51.762Z,19.93
2018-10-15T17:11:55.185Z,22.43
2018-10-15T17:21:58.921Z,14.37
2018-10-15T17:32:02.180Z,15.53
2018-10-15T17:42:05.855Z,15.50
2018-10-15T17:52:09.365Z,14.03
2018-10-15T18:02:12.705Z,17.53
2018-10-15T18:12:16.046Z,24.67
2018-10-15T18:22:19.402Z,15.27
2018-10-15T18:32:23.290Z,19.53
2018-10-15T18:42:26.775Z,18.23
2018-10-15T18:52:30.627Z,24.33
2018-10-15T19:02:34.044Z,20.63
2018-10-15T19:12:37.630Z,28.03
2018-10-15T19:22:41.125Z,20.23
2018-10-15T19:32:44.703Z,17.63
2018-10-15T19:42:47.966Z,26.97
2018-10-15T19:52:51.212Z,17.00
2018-10-15T20:02:54.665Z,19.73
2018-10-15T20:12:58.100Z,14.83
2018-10-15T20:23:01.372Z,23.87
2018-10-15T20:33:04.792Z,19.07
2018-10-15T20:43:08.435Z,16.90
2018-10-15T20:53:11.922Z,18.53
2018-10-15T21:03:15.380Z,17.07
2018-10-15T21:13:18.816Z,21.97
2018-10-15T21:23:25.049Z,22.80
2018-10-15T21:33:28.477Z,14.63
2018-10-15T21:43:31.737Z,23.40
2018-10-15T21:53:35.446Z,17.90
2018-10-15T22:03:38.798Z,27.13
2018-10-15T22:13:42.115Z,16.17
2018-10-15T22:23:45.256Z,18.70
2018-10-15T22:33:48.516Z,22.37
2018-10-15T22:43:51.759Z,17.37
2018-10-15T22:53:54.987Z,18.03
2018-10-15T23:03:58.212Z,21.30
2018-10-15T23:14:01.483Z,14.80
2018-10-15T23:24:04.888Z,18.90
2018-10-15T23:34:08.840Z,16.90
2018-10-15T23:44:12.116Z,17.33
2018-10-15T23:54:15.370Z,18.10
